Kaprifol — 5BXX2 — position and weather

sailwx.info

Track history (hours):
 
Tides and Currents Weather Stations Pressure Air Temp Water Temp Dewpoint Dewpoint Depression Visibility Wind Speed Wind Dir Waves Ship Positions

Kaprifol

Last reported at 2014-Jul-23 14:34 UTC. Time now 2014-Jul-23 15:34 UTC.
Position N 54°18' E 001°30'.

Length 90 m; draft 4.9 m.

Type: Tanker. MMSI: 210445000.

Date/timePositionNaut miles runAvg speedWind from/ knotsBaromVisibWave heightAir tempDewpointWater temp
2014-Jul-23 14:34N 54°18' E 001°30'8 7.8
2014-Jul-23 13:34N 54°23' E 001°40'1110.5
2014-Jul-23 12:33N 54°30' E 001°54'1110.6
2014-Jul-23 11:33N 54°37' E 002°07'9510.4
2014-Jul-23 02:25N 55°41' E 004°09'910.1
2014-Jul-23 01:33N 55°48' E 004°20'19710.2
2014-Jul-22 06:08N 58°02' E 008°46'711.1
2014-Jul-22 05:32N 58°07' E 008°55'3510.9
2014-Jul-22 02:21N 58°33' E 009°38'1310.8
2014-Jul-22 01:10N 58°41' E 009°57'810.9
2014-Jul-22 00:25N 58°46' E 010°09'1011.3
2014-Jul-21 23:33N 58°53' E 010°23'1111.0
2014-Jul-21 22:34N 58°59' E 010°40'9 8.9
2014-Jul-21 21:34N 59°01' E 010°57'0 0.5
2014-Jul-21 20:33N 59°01' E 010°58'0 0.0
2014-Jul-21 20:18N 59°01' E 010°58'0 0.0
2014-Jul-21 19:33N 59°01' E 010°58'0 0.0
2014-Jul-21 18:33N 59°01' E 010°58'1 1.3
2014-Jul-21 17:34N 59°02' E 010°58'10 9.7
2014-Jul-21 16:34N 59°12' E 010°57'6 2.0
2014-Jul-21 13:22N 59°16' E 011°06'0 0.0
2014-Jul-21 12:31N 59°16' E 011°06'0 0.0
2014-Jul-21 11:25N 59°16' E 011°06'0 0.0
2014-Jul-21 10:13N 59°16' E 011°06'0 0.0
2014-Jul-21 09:31N 59°16' E 011°06'0 0.0
2014-Jul-21 08:33N 59°16' E 011°06'0 0.0
2014-Jul-21 07:30N 59°16' E 011°06'0 0.0
2014-Jul-21 06:33N 59°16' E 011°06'0 0.0
2014-Jul-21 05:03N 59°16' E 011°06'0 0.0
2014-Jul-21 04:33N 59°16' E 011°06'0 0.0
2014-Jul-21 03:33N 59°16' E 011°06'4 4.0
2014-Jul-21 02:33N 59°14' E 010°59'7 7.2
2014-Jul-21 01:33N 59°07' E 010°59'6 6.2
2014-Jul-21 00:33N 59°02' E 010°52'7 7.3
2014-Jul-20 23:33N 58°60' E 010°38'8 7.9
2014-Jul-20 22:33N 58°56' E 010°25'54 7.4
2014-Jul-20 15:15N 58°22' E 009°02'5 7.6
2014-Jul-20 14:33N 58°19' E 008°55'8 8.3
2014-Jul-20 13:33N 58°13' E 008°43'8 7.9
2014-Jul-20 12:33N 58°08' E 008°32'7 7.5
2014-Jul-20 11:33N 58°04' E 008°20'74 7.1
2014-Jul-20 01:03N 58°14' E 006°00'4 9.0
2014-Jul-20 00:33N 58°16' E 005°54'9 8.9
2014-Jul-19 23:33N 58°23' E 005°41'11 8.9
2014-Jul-19 22:19N 58°30' E 005°26'17 9.4
2014-Jul-19 20:30N 58°42' E 005°02'97 8.7
2014-Jul-19 09:22N 60°19' E 005°12'8 8.8
2014-Jul-19 08:26N 60°25' E 005°01'0 0.0
2014-Jul-19 00:12N 60°25' E 005°01'  
Track history (hours):
 
Tides and Currents Weather Stations Pressure Air Temp Water Temp Dewpoint Dewpoint Depression Visibility Wind Speed Wind Dir Waves Ship Positions

Kaprifol

Last reported at 2014-Jul-23 14:34 UTC. Time now 2014-Jul-23 15:34 UTC.
Position N 54°18' E 001°30'.

Length 90 m; draft 4.9 m.

Type: Tanker. MMSI: 210445000.

Date/timePositionNaut miles runAvg speedWind from/ knotsBaromVisibWave heightAir tempDewpointWater temp
2014-Jul-23 14:34N 54°18' E 001°30'8 7.8
2014-Jul-23 13:34N 54°23' E 001°40'1110.5
2014-Jul-23 12:33N 54°30' E 001°54'1110.6
2014-Jul-23 11:33N 54°37' E 002°07'9510.4
2014-Jul-23 02:25N 55°41' E 004°09'910.1
2014-Jul-23 01:33N 55°48' E 004°20'19710.2
2014-Jul-22 06:08N 58°02' E 008°46'711.1
2014-Jul-22 05:32N 58°07' E 008°55'3510.9
2014-Jul-22 02:21N 58°33' E 009°38'1310.8
2014-Jul-22 01:10N 58°41' E 009°57'810.9
2014-Jul-22 00:25N 58°46' E 010°09'1011.3
2014-Jul-21 23:33N 58°53' E 010°23'1111.0
2014-Jul-21 22:34N 58°59' E 010°40'9 8.9
2014-Jul-21 21:34N 59°01' E 010°57'0 0.5
2014-Jul-21 20:33N 59°01' E 010°58'0 0.0
2014-Jul-21 20:18N 59°01' E 010°58'0 0.0
2014-Jul-21 19:33N 59°01' E 010°58'0 0.0
2014-Jul-21 18:33N 59°01' E 010°58'1 1.3
2014-Jul-21 17:34N 59°02' E 010°58'10 9.7
2014-Jul-21 16:34N 59°12' E 010°57'6 2.0
2014-Jul-21 13:22N 59°16' E 011°06'0 0.0
2014-Jul-21 12:31N 59°16' E 011°06'0 0.0
2014-Jul-21 11:25N 59°16' E 011°06'0 0.0
2014-Jul-21 10:13N 59°16' E 011°06'0 0.0
2014-Jul-21 09:31N 59°16' E 011°06'0 0.0
2014-Jul-21 08:33N 59°16' E 011°06'0 0.0
2014-Jul-21 07:30N 59°16' E 011°06'0 0.0
2014-Jul-21 06:33N 59°16' E 011°06'0 0.0
2014-Jul-21 05:03N 59°16' E 011°06'0 0.0
2014-Jul-21 04:33N 59°16' E 011°06'0 0.0
2014-Jul-21 03:33N 59°16' E 011°06'4 4.0
2014-Jul-21 02:33N 59°14' E 010°59'7 7.2
2014-Jul-21 01:33N 59°07' E 010°59'6 6.2
2014-Jul-21 00:33N 59°02' E 010°52'7 7.3
2014-Jul-20 23:33N 58°60' E 010°38'8 7.9
2014-Jul-20 22:33N 58°56' E 010°25'54 7.4
2014-Jul-20 15:15N 58°22' E 009°02'5 7.6
2014-Jul-20 14:33N 58°19' E 008°55'8 8.3
2014-Jul-20 13:33N 58°13' E 008°43'8 7.9
2014-Jul-20 12:33N 58°08' E 008°32'7 7.5
2014-Jul-20 11:33N 58°04' E 008°20'74 7.1
2014-Jul-20 01:03N 58°14' E 006°00'4 9.0
2014-Jul-20 00:33N 58°16' E 005°54'9 8.9
2014-Jul-19 23:33N 58°23' E 005°41'11 8.9
2014-Jul-19 22:19N 58°30' E 005°26'17 9.4
2014-Jul-19 20:30N 58°42' E 005°02'97 8.7
2014-Jul-19 09:22N 60°19' E 005°12'8 8.8
2014-Jul-19 08:26N 60°25' E 005°01'0 0.0
2014-Jul-19 00:12N 60°25' E 005°01'  

Dump ship's entire track history